Ashley, OH (43003)

9:36 PM EDT on September 04, 2015 (GMT -0400)
Delaware Lake | | Change Station
CLOSE
Current Station
Personal Weather Station
Location: Delaware, OH
Elevation: 932 ft
Nearby Weather Stations

Elev 932 ft 40.37 °N, 83.03 °W | Updated 13 minutes ago

Overcast
Overcast
66.4 °F
Feels Like 66.4 °F
N
0.0
Wind Variable Wind from South

Today
High -- | Low -- °F
--% Chance of Precip.
Yesterday
High -- | Low -- °F
Precip. -- in
7:01 AM 7:59 PM
Waning Gibbous, 54% visible
Pressure 30.11 in
Visibility 10.0 miles
Clouds Scattered Clouds 4200 ft
Scattered Clouds 6000 ft
Scattered Clouds 7000 ft
Dew Point 65 °F
Humidity 96%
Rainfall 0.28 in
Snow Depth Not available.
UV 0 out of 12
Pollen 9.90 out of 12
Air Quality Not available.
Flu Activity Not available.
METAR KDLZ 050119Z AUTO 20003KT 10SM SCT042 SCT060 SCT070 18/17 A3011 RMK AO2
Pressure 30.11 in
Visibility 10.0 miles
Clouds Scattered Clouds 4200 ft
Scattered Clouds 6000 ft
Scattered Clouds 7000 ft
Dew Point 65 °F
Humidity 96%
Rainfall 0.28 in
Snow Depth Not available.
UV 0 out of 12
Pollen 9.90 out of 12
Air Quality Not available.
Flu Activity Not available.
METAR KDLZ 050119Z AUTO 20003KT 10SM SCT042 SCT060 SCT070 18/17 A3011 RMK AO2

10-Day Weather Forecast

×

Almanac

Astronomy

Sep. 04, 2015 Rise Set
Actual Time
Civil Twilight
Nautical Twilight
Astronomical Twilight
Moon
Length of Visible Light
Length of Day
Tomorrow will be .
, % of the Moon is Illuminated

Today's Extremes

State Highs State Lows

Community

WunderPhotos

Upload Photos

1,852,374 photos uploaded!

WunderBlogs® & News

Nearby

Air Quality

  Air Quality AQ Index Pollutant
Not available.

Snow Depth

Station Depth Elevation

Earthquake Activity

City Distance Mag. Time & Date
Minimum magnitude displayed is 2.5.

Coastal Water Temperatures

Place Temperature

Stations

Nearby Weather Stations

Station Location Temp. Windchill Dew Point Humidity Wind Precip. Elev Updated Type